K21S

2020-01-28 08:15:06Z

Plaintext report →

Current Status: Mist

Temperature
High13.0 °C55.4 °F
Current5.0 °C41.0 °F
Low5.9 °C42.6 °F
Feels LikeUnavailable
Dewpoint4.5 °C40.1 °F
Winds
Speed and Direction0.0 m/s0.0 mi/h 0 kn154 ° (SSE)
Gust0.0 m/s0.00 mi/h 0 kn
SquallUnavailable
Pressure and Humidity
Pressure At Field Level1015.0 mb30.0 in
Pressure At Sea Level1017.8 mb30.1 in
Pressure Trend-0.2 mb-0.0 in
Pressure Tendency 5
Humidity98 %
Historical Weather Phenomenon Graphs

Additional Information:

  METAR K21S 280815Z AUTO 00000KT 3SM BR NCD 04/04 A2997 RMK AO2 SLP178
  10130 20059 55002 =    
Cloud Cover
Layer 1 Undetected
Layer 2 Undetected
Layer 3 Undetected
Winds
2-minute Winds
Minimum0.0 m/s0.00 mi/h 0 kn154 ° (SSE)
Average0.0 m/s0.00 mi/h 0 kn154 ° (SSE)
Maximum0.1 m/s0.22 mi/h 0 kn154 ° (SSE)
10-minute Winds
Minimum0.0 m/s0.00 mi/h 0 kn154 ° (SSE)
Average0.1 m/s0.22 mi/h 0 kn159 ° (SSE)
Maximum0.3 m/s0.67 mi/h 0 kn166 ° (SSE)
Precipitation
Intensity0.00 mm/h0.00 in/h
Rainfall
1-hour Total0.00 mm0.00 in
3-hour Total0.00 mm0.00 in
6-hour Total0.00 mm0.00 in
24-hour Total25.60 mm1.01 in
Precipitation
1-hour Total0.00 mm0.00 in
3-hour Total0.00 mm0.00 in
6-hour Total0.00 mm0.00 in
24-hour Total15.80 mm0.62 in